createdAt,value
2023-05-19T00:00:31.967Z,3.8214
2023-05-19T00:01:32.869Z,3.9066
2023-05-19T00:02:33.940Z,4.0260
2023-05-19T00:03:34.838Z,4.0358
2023-05-19T00:04:35.907Z,4.0152
2023-05-19T00:05:37.066Z,3.9127
2023-05-19T00:06:38.016Z,4.2594
2023-05-19T00:07:39.014Z,4.4331
2023-05-19T00:08:40.054Z,3.9179
2023-05-19T00:09:41.121Z,3.8183
2023-05-19T00:10:42.186Z,3.9131
2023-05-19T00:11:43.225Z,3.9556
2023-05-19T00:12:44.297Z,4.0301
2023-05-19T00:13:45.287Z,4.0908
2023-05-19T00:14:46.349Z,4.0815
2023-05-19T00:15:47.423Z,4.4501
2023-05-19T00:16:48.409Z,4.0625
2023-05-19T00:17:49.413Z,4.1188
2023-05-19T00:18:50.566Z,4.0173
2023-05-19T00:19:51.490Z,4.3288
2023-05-19T00:20:52.583Z,4.4704
2023-05-19T00:21:53.667Z,3.8248
2023-05-19T00:22:54.631Z,4.1457
2023-05-19T00:23:55.668Z,3.7071
2023-05-19T00:24:56.796Z,4.1539
2023-05-19T00:25:57.812Z,4.0151
2023-05-19T00:26:58.833Z,4.1622
2023-05-19T00:27:59.809Z,4.1477
2023-05-19T00:29:00.863Z,4.0821
2023-05-19T00:30:01.892Z,4.2486
2023-05-19T00:31:03.010Z,3.7864
2023-05-19T00:32:04.026Z,3.6475
2023-05-19T00:33:05.137Z,3.9314
2023-05-19T00:34:06.074Z,3.9340
2023-05-19T00:35:07.097Z,3.8301
2023-05-19T00:36:08.210Z,4.2197
2023-05-19T00:37:09.252Z,4.0803
2023-05-19T00:38:10.233Z,4.1925
2023-05-19T00:39:11.329Z,3.9426
2023-05-19T00:40:12.315Z,4.0136
2023-05-19T00:41:13.429Z,3.8160
2023-05-19T00:42:14.507Z,3.8390
2023-05-19T00:43:15.429Z,3.7450
2023-05-19T00:44:16.490Z,3.8388
2023-05-19T00:45:17.568Z,3.8651
2023-05-19T00:46:18.649Z,4.2124
2023-05-19T00:47:19.679Z,4.0122
2023-05-19T00:48:20.650Z,3.9791
2023-05-19T00:49:21.710Z,3.7544
2023-05-19T00:50:22.746Z,3.9077
2023-05-19T00:51:23.890Z,4.2305
2023-05-19T00:52:24.906Z,3.8393
2023-05-19T00:53:25.852Z,3.7005
2023-05-19T00:54:26.912Z,4.2075
2023-05-19T00:55:27.999Z,3.7503
2023-05-19T00:56:29.099Z,4.0818
2023-05-19T00:57:30.106Z,4.0639
2023-05-19T00:58:31.219Z,4.0484
2023-05-19T00:59:32.153Z,3.7372
2023-05-19T01:00:33.421Z,4.0217
2023-05-19T01:01:34.385Z,4.1068
2023-05-19T01:02:35.392Z,4.4204
2023-05-19T01:03:36.473Z,4.3253
2023-05-19T01:04:37.308Z,4.3252
2023-05-19T01:05:38.412Z,4.3388
2023-05-19T01:06:39.452Z,4.9099
2023-05-19T01:07:40.509Z,4.7744
2023-05-19T01:08:41.522Z,4.7515
2023-05-19T01:09:42.552Z,4.4973
2023-05-19T01:10:43.579Z,4.5714
2023-05-19T01:11:44.687Z,4.4492
2023-05-19T01:12:45.697Z,4.3212
2023-05-19T01:13:46.725Z,4.1783
2023-05-19T01:14:47.757Z,4.2838
2023-05-19T01:15:48.838Z,4.2057
2023-05-19T01:16:49.938Z,4.3291
2023-05-19T01:17:50.935Z,4.2477
2023-05-19T01:18:51.937Z,4.1841
2023-05-19T01:19:53.011Z,4.0275
2023-05-19T01:20:54.027Z,4.2377
2023-05-19T01:21:55.106Z,4.2892
2023-05-19T01:22:56.113Z,4.1267
2023-05-19T01:23:57.200Z,4.3860
2023-05-19T01:24:58.150Z,3.8724
2023-05-19T01:25:59.185Z,3.8027
2023-05-19T01:27:00.331Z,3.8793
2023-05-19T01:28:01.370Z,4.2658
2023-05-19T01:29:02.379Z,4.2016
2023-05-19T01:30:03.407Z,3.9958
2023-05-19T01:31:04.446Z,3.8515
2023-05-19T01:32:05.599Z,3.6175
2023-05-19T01:33:06.610Z,3.6652
2023-05-19T01:34:07.663Z,3.6301
2023-05-19T01:35:08.594Z,3.9243
2023-05-19T01:36:09.741Z,4.0239
2023-05-19T01:37:10.786Z,3.6189
2023-05-19T01:38:11.791Z,3.8403
2023-05-19T01:39:12.792Z,3.8724
2023-05-19T01:40:13.813Z,3.4450
2023-05-19T01:41:14.948Z,3.6542
2023-05-19T01:42:15.935Z,3.6265
2023-05-19T01:43:16.985Z,3.8906
2023-05-19T01:44:18.082Z,3.9674
2023-05-19T01:45:19.100Z,3.4100
2023-05-19T01:46:20.098Z,3.4780
2023-05-19T01:47:21.239Z,3.5485
2023-05-19T01:48:22.200Z,3.5025
2023-05-19T01:49:23.219Z,3.7337
2023-05-19T01:50:24.264Z,3.7393
2023-05-19T01:51:25.296Z,3.7118
2023-05-19T01:52:26.377Z,3.3889
2023-05-19T01:53:27.416Z,3.6086
2023-05-19T01:54:28.416Z,3.6881
2023-05-19T01:55:29.473Z,3.7483
2023-05-19T01:56:30.494Z,3.5263
2023-05-19T01:57:31.593Z,3.7497
2023-05-19T01:58:32.694Z,3.5988
2023-05-19T01:59:33.638Z,4.1558
2023-05-19T02:00:34.815Z,3.8101
2023-05-19T02:01:35.753Z,3.7859
2023-05-19T02:02:36.839Z,3.7700
2023-05-19T02:03:37.857Z,3.5611
2023-05-19T02:04:38.877Z,3.6161
2023-05-19T02:05:39.940Z,3.4068
2023-05-19T02:06:40.960Z,3.6364
2023-05-19T02:07:42.017Z,3.4216
2023-05-19T02:08:43.126Z,3.7298
2023-05-19T02:09:44.037Z,3.3402
2023-05-19T02:10:45.137Z,3.7898
2023-05-19T02:11:46.113Z,3.3369
2023-05-19T02:12:47.191Z,3.4693
2023-05-19T02:13:48.268Z,3.5189
2023-05-19T02:14:49.270Z,3.5308
2023-05-19T02:15:50.374Z,3.7218
2023-05-19T02:16:51.350Z,3.4629
2023-05-19T02:17:52.461Z,3.5553
2023-05-19T02:18:53.541Z,3.4703
2023-05-19T02:19:54.469Z,3.9278
2023-05-19T02:20:55.494Z,3.6465
2023-05-19T02:21:56.550Z,3.6174
2023-05-19T02:22:57.656Z,3.6442
2023-05-19T02:23:58.723Z,3.5494
2023-05-19T02:24:59.673Z,3.7814
2023-05-19T02:26:00.717Z,3.5476
2023-05-19T02:27:01.736Z,3.4782
2023-05-19T02:28:02.838Z,3.5869
2023-05-19T02:29:03.858Z,3.7970
2023-05-19T02:30:04.845Z,3.8557
2023-05-19T02:31:05.945Z,3.5236
2023-05-19T02:32:07.027Z,3.7985
2023-05-19T02:33:08.082Z,3.6660
2023-05-19T02:34:09.053Z,3.9792
2023-05-19T02:35:10.025Z,4.1310
2023-05-19T02:36:11.085Z,3.5841
2023-05-19T02:37:12.118Z,3.2945
2023-05-19T02:38:13.225Z,3.5907
2023-05-19T02:39:14.296Z,3.7342
2023-05-19T02:40:15.338Z,3.8557
2023-05-19T02:41:16.311Z,3.5358
2023-05-19T02:42:17.334Z,3.8266
2023-05-19T02:43:18.426Z,4.1264
2023-05-19T02:44:19.446Z,3.6677
2023-05-19T02:45:20.470Z,4.0089
2023-05-19T02:46:21.559Z,3.5846
2023-05-19T02:47:22.605Z,3.6842
2023-05-19T02:48:23.605Z,3.4300
2023-05-19T02:49:24.656Z,3.9388
2023-05-19T02:50:25.652Z,3.8079
2023-05-19T02:51:26.709Z,3.8297
2023-05-19T02:52:27.727Z,3.8067
2023-05-19T02:53:28.806Z,4.1462
2023-05-19T02:54:29.855Z,3.7903
2023-05-19T02:55:30.865Z,3.7618
2023-05-19T02:56:31.907Z,3.8850
2023-05-19T02:57:32.964Z,3.8749
2023-05-19T02:58:34.040Z,3.9318
2023-05-19T02:59:35.115Z,3.7361
2023-05-19T03:00:36.060Z,3.9089
2023-05-19T03:01:37.185Z,3.8453
2023-05-19T03:02:38.313Z,4.0058
2023-05-19T03:03:39.329Z,3.7004
2023-05-19T03:04:40.253Z,3.8465
2023-05-19T03:05:41.327Z,3.8762
2023-05-19T03:06:42.307Z,4.0728
2023-05-19T03:07:43.425Z,3.9121
2023-05-19T03:08:44.429Z,4.0591
2023-05-19T03:09:45.522Z,4.0385
2023-05-19T03:10:46.465Z,3.9348
2023-05-19T03:11:47.489Z,4.0590
2023-05-19T03:12:48.610Z,3.9518
2023-05-19T03:13:49.617Z,4.0203
2023-05-19T03:14:50.665Z,4.1425
2023-05-19T03:15:51.698Z,4.1730
2023-05-19T03:16:52.918Z,3.7512
2023-05-19T03:17:53.784Z,3.8732
2023-05-19T03:18:54.903Z,4.0164
2023-05-19T03:19:55.899Z,4.5107
2023-05-19T03:20:56.922Z,4.1513
2023-05-19T03:21:57.893Z,4.2660
2023-05-19T03:22:59.018Z,4.2181
2023-05-19T03:24:00.100Z,4.6954
2023-05-19T03:25:01.087Z,4.5266
2023-05-19T03:26:02.054Z,4.0369
2023-05-19T03:27:03.194Z,4.1428
2023-05-19T03:28:04.152Z,4.1340
2023-05-19T03:29:05.240Z,4.2282
2023-05-19T03:30:06.726Z,4.0580
2023-05-19T03:31:07.337Z,4.3676
2023-05-19T03:32:08.296Z,4.0445
2023-05-19T03:33:09.522Z,4.6985
2023-05-19T03:34:10.395Z,3.9543
2023-05-19T03:35:11.512Z,4.1764
2023-05-19T03:36:12.496Z,3.8600
2023-05-19T03:37:13.519Z,4.4966
2023-05-19T03:38:14.536Z,4.2941
2023-05-19T03:39:15.692Z,4.5479
2023-05-19T03:40:16.691Z,4.1478
2023-05-19T03:41:17.733Z,3.8886
2023-05-19T03:42:18.697Z,3.8563
2023-05-19T03:43:19.755Z,4.2349
2023-05-19T03:44:20.869Z,4.4841
2023-05-19T03:45:21.923Z,3.9856
2023-05-19T03:46:22.983Z,4.1597
2023-05-19T03:47:23.959Z,3.8297
2023-05-19T03:48:24.959Z,4.0625
2023-05-19T03:49:26.026Z,4.7294
2023-05-19T03:50:27.157Z,4.1725
2023-05-19T03:51:28.069Z,4.1778
2023-05-19T03:52:29.137Z,4.0422
2023-05-19T03:53:30.148Z,3.9084
2023-05-19T03:54:31.274Z,4.1482
2023-05-19T03:55:32.257Z,4.4180
2023-05-19T03:56:33.311Z,4.3219
2023-05-19T03:57:34.309Z,4.0483
2023-05-19T03:58:35.392Z,3.9260
2023-05-19T03:59:36.421Z,3.8296
2023-05-19T04:00:37.558Z,3.9107
2023-05-19T04:01:38.500Z,3.8159
2023-05-19T04:02:39.654Z,4.3065
2023-05-19T04:03:40.618Z,4.0220
2023-05-19T04:04:41.682Z,4.2035
2023-05-19T04:05:42.709Z,4.2286
2023-05-19T04:06:43.695Z,4.0412
2023-05-19T04:07:44.715Z,4.0412
2023-05-19T04:08:45.800Z,3.9952
2023-05-19T04:09:46.860Z,4.1667
2023-05-19T04:10:47.907Z,4.2838
2023-05-19T04:11:48.931Z,3.8628
2023-05-19T04:12:49.954Z,4.4371
2023-05-19T04:13:51.030Z,3.9979
2023-05-19T04:14:52.095Z,4.0344
2023-05-19T04:15:53.230Z,4.0447
2023-05-19T04:16:54.151Z,4.4505
2023-05-19T04:17:55.225Z,4.5777
2023-05-19T04:18:56.304Z,4.1970
2023-05-19T04:19:57.324Z,4.0289
2023-05-19T04:20:58.334Z,4.3150
2023-05-19T04:21:59.349Z,4.4482
2023-05-19T04:23:00.403Z,4.0665
2023-05-19T04:24:01.455Z,4.0544
2023-05-19T04:25:02.569Z,4.2757
2023-05-19T04:26:03.596Z,4.6251
2023-05-19T04:27:04.657Z,4.6515
2023-05-19T04:28:05.618Z,4.3534
2023-05-19T04:29:06.735Z,4.4098
2023-05-19T04:30:07.818Z,4.2341
2023-05-19T04:31:08.860Z,4.3613
2023-05-19T04:32:09.871Z,4.7321
2023-05-19T04:33:10.870Z,4.5036
2023-05-19T04:34:11.928Z,4.5627
2023-05-19T04:35:13.086Z,4.2996
2023-05-19T04:36:14.058Z,4.1916
2023-05-19T04:37:15.076Z,4.3887
2023-05-19T04:38:16.054Z,4.0465
2023-05-19T04:39:17.126Z,4.0300
2023-05-19T04:40:18.233Z,4.5348
2023-05-19T04:41:19.283Z,4.0129
2023-05-19T04:42:20.295Z,3.9366
2023-05-19T04:43:21.297Z,4.3955
2023-05-19T04:44:22.336Z,4.7091
2023-05-19T04:45:23.421Z,4.3677
2023-05-19T04:46:24.585Z,4.4460
2023-05-19T04:47:25.516Z,4.1891
2023-05-19T04:48:26.591Z,4.3579
2023-05-19T04:49:27.594Z,4.0757
2023-05-19T04:50:28.700Z,4.1549
2023-05-19T04:51:30.665Z,4.1595
2023-05-19T04:52:30.676Z,4.1358
2023-05-19T04:53:31.737Z,4.4838
2023-05-19T04:54:32.871Z,4.0076
2023-05-19T04:55:33.879Z,4.6566
2023-05-19T04:56:34.984Z,4.4518
2023-05-19T04:57:35.913Z,4.3443
2023-05-19T04:58:36.954Z,4.2873
2023-05-19T04:59:37.985Z,4.1574
2023-05-19T05:00:39.090Z,4.2295
2023-05-19T05:01:40.207Z,4.5374
2023-05-19T05:02:41.186Z,4.2317
2023-05-19T05:03:42.245Z,4.0047
2023-05-19T05:04:43.230Z,4.5644
2023-05-19T05:05:44.323Z,4.0688
2023-05-19T05:06:45.352Z,4.4211
2023-05-19T05:07:46.327Z,4.5293
2023-05-19T05:08:47.403Z,4.3276
2023-05-19T05:09:48.476Z,4.4929
2023-05-19T05:10:49.547Z,4.3115
2023-05-19T05:11:50.572Z,4.3236
2023-05-19T05:12:51.676Z,4.7740
2023-05-19T05:13:52.632Z,4.3806
2023-05-19T05:14:53.728Z,4.6578
2023-05-19T05:15:54.783Z,3.9330
2023-05-19T05:16:55.811Z,4.3418
2023-05-19T05:17:56.939Z,4.4737
2023-05-19T05:18:57.904Z,4.0832
2023-05-19T05:19:58.906Z,3.5134
2023-05-19T05:20:59.947Z,4.5972
2023-05-19T05:22:01.052Z,4.2943
2023-05-19T05:23:01.990Z,4.3592
2023-05-19T05:24:03.006Z,4.3137
2023-05-19T05:25:04.109Z,4.1685
2023-05-19T05:26:05.157Z,4.1969
2023-05-19T05:27:06.270Z,4.1495
2023-05-19T05:28:07.330Z,4.0522
2023-05-19T05:29:08.333Z,4.1055
2023-05-19T05:30:09.329Z,4.3529
2023-05-19T05:31:10.461Z,4.3789
2023-05-19T05:32:11.493Z,3.8699
2023-05-19T05:33:12.748Z,4.2602
2023-05-19T05:34:13.530Z,4.4131
2023-05-19T05:35:14.563Z,4.4152
2023-05-19T05:36:15.665Z,4.6628
2023-05-19T05:37:16.697Z,4.7216
2023-05-19T05:38:17.736Z,4.5295
2023-05-19T05:39:18.750Z,4.6967
2023-05-19T05:40:19.774Z,4.7669
2023-05-19T05:41:20.823Z,4.4828
2023-05-19T05:42:21.950Z,4.5148
2023-05-19T05:43:22.910Z,4.7382
2023-05-19T05:44:23.939Z,4.7856
2023-05-19T05:45:24.997Z,4.7332
2023-05-19T05:46:26.195Z,4.3879
2023-05-19T05:47:27.153Z,5.0273
2023-05-19T05:48:28.108Z,4.7176
2023-05-19T05:49:29.145Z,4.6239
2023-05-19T05:50:30.187Z,4.4395
2023-05-19T05:51:31.249Z,4.6602
2023-05-19T05:52:32.294Z,4.4735
2023-05-19T05:53:33.295Z,4.7755
2023-05-19T05:54:34.337Z,4.7413
2023-05-19T05:55:35.546Z,4.7564
2023-05-19T05:56:36.513Z,5.0892
2023-05-19T05:57:37.565Z,5.3335
2023-05-19T05:58:38.517Z,4.7114
2023-05-19T05:59:39.554Z,4.7976
2023-05-19T06:00:40.593Z,5.1146
2023-05-19T06:01:41.721Z,5.2495
2023-05-19T06:02:42.820Z,5.3986
2023-05-19T06:03:43.835Z,4.5026
2023-05-19T06:04:44.751Z,4.9864
2023-05-19T06:05:45.829Z,5.1939
2023-05-19T06:06:46.862Z,4.6960
2023-05-19T06:07:47.940Z,5.0473
2023-05-19T06:08:48.906Z,5.1406
2023-05-19T06:09:49.953Z,4.7263
2023-05-19T06:10:51.018Z,4.9071
2023-05-19T06:11:52.075Z,5.2268
2023-05-19T06:12:53.130Z,5.0393
2023-05-19T06:13:54.113Z,5.0443
2023-05-19T06:14:55.138Z,5.4435
2023-05-19T06:15:56.208Z,5.3150
2023-05-19T06:16:57.389Z,6.0494
2023-05-19T06:17:58.367Z,5.8828
2023-05-19T06:18:59.452Z,5.4156
2023-05-19T06:20:00.340Z,5.3677
2023-05-19T06:21:01.503Z,5.5065
2023-05-19T06:22:02.524Z,5.6348
2023-05-19T06:23:03.544Z,5.5898
2023-05-19T06:24:04.538Z,5.5960
2023-05-19T06:25:05.632Z,5.5059
2023-05-19T06:26:06.611Z,5.8574
2023-05-19T06:27:07.825Z,5.4391
2023-05-19T06:28:08.796Z,5.1114
2023-05-19T06:29:09.730Z,5.1873
2023-05-19T06:30:10.788Z,5.2948
2023-05-19T06:31:11.841Z,5.3458
2023-05-19T06:32:12.880Z,5.3503
2023-05-19T06:33:14.002Z,5.0519
2023-05-19T06:34:14.943Z,5.6362
2023-05-19T06:35:16.065Z,5.9732
2023-05-19T06:36:17.119Z,5.5034
2023-05-19T06:37:18.216Z,5.6388
2023-05-19T06:38:19.162Z,5.0936
2023-05-19T06:39:20.192Z,5.9472
2023-05-19T06:40:21.200Z,5.6555
2023-05-19T06:41:22.391Z,5.9315
2023-05-19T06:42:23.327Z,6.0195
2023-05-19T06:43:24.396Z,6.0103
2023-05-19T06:44:25.356Z,6.0404
2023-05-19T06:45:26.439Z,6.0571
2023-05-19T06:46:27.460Z,5.2824
2023-05-19T06:47:28.566Z,5.2114
2023-05-19T06:48:29.631Z,5.1914
2023-05-19T06:49:30.612Z,5.1570
2023-05-19T06:50:31.843Z,5.4009
2023-05-19T06:51:32.670Z,5.6752
2023-05-19T06:52:33.860Z,5.6250
2023-05-19T06:53:34.816Z,5.3739
2023-05-19T06:54:35.775Z,4.9674
2023-05-19T06:55:41.400Z,5.7844
2023-05-19T06:56:37.908Z,5.7559
2023-05-19T06:57:38.946Z,5.7032
2023-05-19T06:58:39.921Z,6.1483
2023-05-19T06:59:40.901Z,5.9783
2023-05-19T07:00:41.965Z,5.3122
2023-05-19T07:01:43.077Z,5.2595
2023-05-19T07:02:44.152Z,5.4988
2023-05-19T07:03:45.156Z,5.5708
2023-05-19T07:04:46.105Z,5.3858
2023-05-19T07:05:47.133Z,5.7645
2023-05-19T07:06:48.185Z,5.6732
2023-05-19T07:07:49.253Z,5.8022
2023-05-19T07:08:51.816Z,6.4400
2023-05-19T07:09:51.312Z,6.2654
2023-05-19T07:10:52.380Z,6.1557
2023-05-19T07:11:53.373Z,5.9973
2023-05-19T07:12:54.492Z,6.0466
2023-05-19T07:13:55.616Z,5.7748
2023-05-19T07:14:56.590Z,5.7047
2023-05-19T07:15:57.601Z,6.0302
2023-05-19T07:16:58.607Z,5.9596
2023-05-19T07:17:59.724Z,6.1165
2023-05-19T07:19:00.800Z,6.1036
2023-05-19T07:20:01.731Z,5.8405
2023-05-19T07:21:02.788Z,6.0511
2023-05-19T07:22:03.822Z,6.2511
2023-05-19T07:23:04.901Z,6.1245
2023-05-19T07:24:05.932Z,6.2218
2023-05-19T07:25:06.993Z,5.6724
2023-05-19T07:26:07.965Z,5.9969
2023-05-19T07:27:09.071Z,5.8455
2023-05-19T07:28:10.135Z,6.2581
2023-05-19T07:29:11.204Z,6.5032
2023-05-19T07:30:12.223Z,6.2480
2023-05-19T07:31:13.208Z,6.3135
2023-05-19T07:32:14.344Z,6.3554
2023-05-19T07:33:15.395Z,6.1163
2023-05-19T07:34:16.349Z,6.2447
2023-05-19T07:35:17.415Z,6.2333
2023-05-19T07:36:18.405Z,6.4786
2023-05-19T07:37:19.499Z,6.3587
2023-05-19T07:38:20.505Z,6.3171
2023-05-19T07:39:21.609Z,6.6274
2023-05-19T07:40:22.594Z,6.4754
2023-05-19T07:41:23.640Z,6.3509
2023-05-19T07:42:24.699Z,5.9151
2023-05-19T07:43:25.696Z,6.2465
2023-05-19T07:44:26.750Z,6.1132
2023-05-19T07:45:27.848Z,6.0483
2023-05-19T07:46:28.993Z,6.3568
2023-05-19T07:47:30.023Z,6.2313
2023-05-19T07:48:30.890Z,6.4973
2023-05-19T07:49:32.011Z,6.6255
2023-05-19T07:50:33.140Z,7.1845
2023-05-19T07:51:34.019Z,6.9007
2023-05-19T07:52:35.083Z,7.0685
2023-05-19T07:53:36.135Z,6.4295
2023-05-19T07:54:37.164Z,6.5385
2023-05-19T07:55:38.208Z,6.9486
2023-05-19T07:56:39.214Z,6.4753
2023-05-19T07:57:40.540Z,6.5475
2023-05-19T07:58:41.332Z,6.4509
2023-05-19T07:59:42.386Z,6.3570
2023-05-19T08:00:43.435Z,6.3313
2023-05-19T08:01:44.418Z,6.5492
2023-05-19T08:02:45.493Z,6.8270
2023-05-19T08:03:46.545Z,6.5549
2023-05-19T08:04:47.680Z,7.1166
2023-05-19T08:05:48.657Z,6.5937
2023-05-19T08:06:49.591Z,6.4079
2023-05-19T08:07:50.691Z,6.8197
2023-05-19T08:08:51.747Z,6.6098
2023-05-19T08:09:52.817Z,7.0186
2023-05-19T08:10:53.847Z,6.7705
2023-05-19T08:11:54.873Z,6.7441
2023-05-19T08:12:56.138Z,7.1816
2023-05-19T08:13:56.926Z,6.9818
2023-05-19T08:14:59.734Z,7.1887
2023-05-19T08:15:59.090Z,6.8585
2023-05-19T08:17:00.039Z,6.7479
2023-05-19T08:18:01.151Z,7.0470
2023-05-19T08:19:02.173Z,7.0953
2023-05-19T08:20:03.219Z,7.4334
2023-05-19T08:21:04.247Z,7.3621
2023-05-19T08:22:05.253Z,7.1541
2023-05-19T08:23:06.271Z,7.3583
2023-05-19T08:24:07.352Z,7.1425
2023-05-19T08:25:08.438Z,7.1014
2023-05-19T08:26:09.505Z,7.1072
2023-05-19T08:27:10.482Z,7.2936
2023-05-19T08:28:11.620Z,7.2246
2023-05-19T08:29:12.522Z,7.4373
2023-05-19T08:30:13.645Z,7.3365
2023-05-19T08:31:14.704Z,7.5279
2023-05-19T08:32:15.698Z,7.5224
2023-05-19T08:33:16.701Z,7.7791
2023-05-19T08:34:17.746Z,7.6047
2023-05-19T08:35:18.865Z,7.4893
2023-05-19T08:36:20.055Z,7.4170
2023-05-19T08:37:20.907Z,7.8167
2023-05-19T08:38:21.954Z,7.3140
2023-05-19T08:39:22.945Z,6.8525
2023-05-19T08:40:24.067Z,7.3444
2023-05-19T08:41:25.128Z,7.4708
2023-05-19T08:42:26.152Z,7.0418
2023-05-19T08:43:27.148Z,7.1753
2023-05-19T08:44:28.161Z,7.4578
2023-05-19T08:45:29.465Z,9.7792
2023-05-19T08:46:30.309Z,8.4769
2023-05-19T08:47:31.337Z,11.0801
2023-05-19T08:48:32.323Z,7.3382
2023-05-19T08:49:33.346Z,7.7080
2023-05-19T08:50:34.741Z,7.4593
2023-05-19T08:51:35.497Z,7.6089
2023-05-19T08:52:36.557Z,7.3530
2023-05-19T08:53:37.519Z,7.8502
2023-05-19T08:54:38.540Z,7.1866
2023-05-19T08:55:39.625Z,7.5690
2023-05-19T08:56:40.660Z,7.4122
2023-05-19T08:57:41.699Z,7.5440
2023-05-19T08:58:42.786Z,7.4492
2023-05-19T08:59:43.781Z,7.4933
2023-05-19T09:00:44.848Z,7.5057
2023-05-19T09:01:46.027Z,7.4549
2023-05-19T09:02:55.467Z,7.1474
2023-05-19T09:03:47.974Z,7.5735
2023-05-19T09:04:49.015Z,7.6476
2023-05-19T09:05:50.073Z,7.4760
2023-05-19T09:06:51.054Z,7.5530
2023-05-19T09:07:52.165Z,7.6772
2023-05-19T09:08:53.381Z,7.7049
2023-05-19T09:09:54.137Z,7.4330
2023-05-19T09:10:55.264Z,7.9361
2023-05-19T09:11:56.306Z,7.2869
2023-05-19T09:12:57.302Z,7.7297
2023-05-19T09:13:58.316Z,7.2096
2023-05-19T09:14:59.374Z,7.2625
2023-05-19T09:16:00.390Z,6.8804
2023-05-19T09:17:01.575Z,7.4566
2023-05-19T09:18:02.558Z,7.1590
2023-05-19T09:19:03.620Z,7.1450
2023-05-19T09:20:04.574Z,7.2977
2023-05-19T09:21:05.603Z,7.3853
2023-05-19T09:22:06.718Z,7.8226
2023-05-19T09:23:07.703Z,7.5315
2023-05-19T09:24:08.726Z,7.5128
2023-05-19T09:25:09.740Z,7.9906
2023-05-19T09:26:10.752Z,8.0686
2023-05-19T09:27:11.859Z,7.7485
2023-05-19T09:28:12.943Z,7.5824
2023-05-19T09:29:13.992Z,7.8055
2023-05-19T09:30:15.007Z,7.5851
2023-05-19T09:31:16.042Z,7.7831
2023-05-19T09:32:17.096Z,8.2334
2023-05-19T09:33:18.172Z,7.5737
2023-05-19T09:34:19.298Z,7.6675
2023-05-19T09:35:20.229Z,8.0185
2023-05-19T09:36:21.182Z,7.5788
2023-05-19T09:37:22.323Z,7.8570
2023-05-19T09:38:23.300Z,7.9316
2023-05-19T09:39:24.401Z,7.6158
2023-05-19T09:40:25.479Z,7.8752
2023-05-19T09:41:26.422Z,7.8460
2023-05-19T09:42:27.458Z,8.2767
2023-05-19T09:43:28.639Z,7.7621
2023-05-19T09:44:29.718Z,7.7284
2023-05-19T09:45:30.665Z,7.6420
2023-05-19T09:46:31.656Z,7.2305
2023-05-19T09:47:32.666Z,7.3996
2023-05-19T09:48:33.706Z,7.2524
2023-05-19T09:49:34.749Z,7.7743
2023-05-19T09:50:35.836Z,7.4469
2023-05-19T09:51:36.795Z,7.6414
2023-05-19T09:52:37.833Z,7.8559
2023-05-19T09:53:38.978Z,8.1486
2023-05-19T09:54:39.939Z,7.8955
2023-05-19T09:55:40.944Z,7.3227
2023-05-19T09:56:42.012Z,7.9700
2023-05-19T09:57:43.022Z,7.7829
2023-05-19T09:58:44.088Z,7.3751
2023-05-19T09:59:45.160Z,7.9648
2023-05-19T10:00:46.193Z,8.0800
2023-05-19T10:01:47.221Z,7.7394
2023-05-19T10:02:48.287Z,7.5181
2023-05-19T10:03:49.263Z,8.0870
2023-05-19T10:04:50.365Z,8.0029
2023-05-19T10:05:51.397Z,7.9086
2023-05-19T10:06:52.420Z,7.7601
2023-05-19T10:07:53.418Z,7.3496
2023-05-19T10:08:54.462Z,7.9148
2023-05-19T10:09:56.670Z,7.8032
2023-05-19T10:10:56.665Z,7.7107
2023-05-19T10:11:57.614Z,8.1616
2023-05-19T10:12:58.647Z,7.4644
2023-05-19T10:13:59.701Z,8.0906
2023-05-19T10:15:00.734Z,8.4866
2023-05-19T10:16:02.139Z,7.7925
2023-05-19T10:17:03.021Z,7.7625
2023-05-19T10:18:03.876Z,8.0146
2023-05-19T10:19:04.966Z,8.5180
2023-05-19T10:20:05.931Z,8.6546
2023-05-19T10:21:07.012Z,8.2378
2023-05-19T10:22:08.032Z,7.7722
2023-05-19T10:23:09.195Z,7.5939
2023-05-19T10:24:11.472Z,8.0858
2023-05-19T10:25:11.152Z,8.2854
2023-05-19T10:26:12.207Z,7.9958
2023-05-19T10:27:13.272Z,8.0820
2023-05-19T10:28:14.256Z,8.3170
2023-05-19T10:29:15.301Z,8.7122
2023-05-19T10:30:16.735Z,8.6881
2023-05-19T10:31:17.418Z,7.8852
2023-05-19T10:32:18.494Z,8.5197
2023-05-19T10:33:19.584Z,8.2302
2023-05-19T10:34:20.496Z,8.4084
2023-05-19T10:35:21.572Z,8.5132
2023-05-19T10:36:22.615Z,8.3704
2023-05-19T10:37:23.659Z,8.0442
2023-05-19T10:38:24.666Z,8.6059
2023-05-19T10:39:25.741Z,8.4485
2023-05-19T10:40:26.783Z,8.0767
2023-05-19T10:41:27.830Z,8.2816
2023-05-19T10:42:28.880Z,8.1758
2023-05-19T10:43:29.875Z,8.4083
2023-05-19T10:44:30.944Z,8.6480
2023-05-19T10:45:32.189Z,8.1478
2023-05-19T10:46:33.062Z,8.4561
2023-05-19T10:47:34.135Z,8.5133
2023-05-19T10:48:35.167Z,8.0860
2023-05-19T10:49:36.113Z,8.1998
2023-05-19T10:50:37.190Z,8.3559
2023-05-19T10:51:38.248Z,8.6202
2023-05-19T10:52:39.295Z,8.6211
2023-05-19T10:53:40.351Z,8.2912
2023-05-19T10:54:41.372Z,8.7330
2023-05-19T10:55:42.380Z,7.9487
2023-05-19T10:56:43.431Z,8.5864
2023-05-19T10:57:44.463Z,8.2786
2023-05-19T10:58:45.570Z,8.5823
2023-05-19T10:59:46.545Z,7.8379
2023-05-19T11:00:47.608Z,8.3670
2023-05-19T11:01:48.633Z,7.8980
2023-05-19T11:02:49.848Z,8.3067
2023-05-19T11:03:50.839Z,8.1834
2023-05-19T11:04:52.149Z,8.4851
2023-05-19T11:05:52.799Z,8.5545
2023-05-19T11:06:53.910Z,7.9688
2023-05-19T11:07:54.903Z,8.1234
2023-05-19T11:08:55.988Z,8.6177
2023-05-19T11:09:56.984Z,8.3610
2023-05-19T11:10:58.029Z,8.1172
2023-05-19T11:11:59.042Z,8.1158
2023-05-19T11:13:00.104Z,7.9305
2023-05-19T11:14:01.206Z,8.2726
2023-05-19T11:15:02.204Z,7.8706
2023-05-19T11:16:03.193Z,8.4086
2023-05-19T11:17:04.323Z,8.8040
2023-05-19T11:18:05.383Z,8.6629
2023-05-19T11:19:06.418Z,8.2153
2023-05-19T11:20:07.428Z,8.4315
2023-05-19T11:21:08.484Z,8.4582
2023-05-19T11:22:09.479Z,7.5957
2023-05-19T11:23:10.684Z,8.2942
2023-05-19T11:24:11.559Z,8.0345
2023-05-19T11:25:12.622Z,8.0859
2023-05-19T11:26:13.633Z,8.2768
2023-05-19T11:27:14.673Z,7.9856
2023-05-19T11:28:15.697Z,8.5984
2023-05-19T11:29:16.793Z,7.8013
2023-05-19T11:30:17.814Z,8.1595
2023-05-19T11:31:18.850Z,7.9819
2023-05-19T11:32:19.932Z,8.1347
2023-05-19T11:33:21.022Z,7.9292
2023-05-19T11:34:21.993Z,8.4669
2023-05-19T11:35:23.074Z,8.3835
2023-05-19T11:36:24.030Z,8.4677
2023-05-19T11:37:25.101Z,8.8302
2023-05-19T11:38:26.112Z,8.6945
2023-05-19T11:39:27.209Z,8.5874
2023-05-19T11:40:28.252Z,8.8131
2023-05-19T11:41:29.330Z,8.7777
2023-05-19T11:42:30.303Z,8.5260
2023-05-19T11:43:31.355Z,8.5644
2023-05-19T11:44:32.401Z,8.1949
2023-05-19T11:45:33.594Z,8.3489
2023-05-19T11:46:34.571Z,8.1334
2023-05-19T11:47:46.490Z,8.1207
2023-05-19T11:48:36.550Z,8.1024
2023-05-19T11:49:37.581Z,7.9866
2023-05-19T11:50:38.692Z,8.5592
2023-05-19T11:51:39.682Z,8.5335
2023-05-19T11:52:40.704Z,8.3272
2023-05-19T11:53:41.732Z,8.3525
2023-05-19T11:54:42.773Z,8.7574
2023-05-19T11:55:44.090Z,8.4132
2023-05-19T11:56:44.903Z,7.8517
2023-05-19T11:57:56.052Z,8.2363
2023-05-19T11:58:47.016Z,8.5138
2023-05-19T11:59:47.957Z,8.1145
2023-05-19T12:00:49.010Z,7.9764
2023-05-19T12:01:50.091Z,8.2050
2023-05-19T12:02:51.191Z,8.6183
2023-05-19T12:03:52.397Z,7.9786
2023-05-19T12:04:53.241Z,7.9513
2023-05-19T12:05:54.295Z,8.1001
2023-05-19T12:06:55.237Z,8.2658
2023-05-19T12:07:56.326Z,7.9330
2023-05-19T12:08:57.369Z,8.3671
2023-05-19T12:09:58.365Z,8.4066
2023-05-19T12:10:59.405Z,8.1214
2023-05-19T12:12:00.480Z,8.2956
2023-05-19T12:13:01.504Z,8.1518
2023-05-19T12:14:02.559Z,8.1733
2023-05-19T12:15:03.534Z,8.4084
2023-05-19T12:16:04.652Z,8.1202
2023-05-19T12:17:05.624Z,8.2212
2023-05-19T12:18:06.898Z,8.2566
2023-05-19T12:19:07.778Z,8.3169
2023-05-19T12:20:08.760Z,8.7792
2023-05-19T12:21:09.776Z,8.8829
2023-05-19T12:22:10.842Z,8.4756
2023-05-19T12:23:11.921Z,8.1749
2023-05-19T12:24:13.011Z,8.4578
2023-05-19T12:25:13.963Z,8.6695
2023-05-19T12:26:15.030Z,7.6446
2023-05-19T12:27:16.029Z,8.5940
2023-05-19T12:28:17.131Z,8.6260
2023-05-19T12:29:18.134Z,8.9924
2023-05-19T12:30:19.188Z,8.4822
2023-05-19T12:31:20.248Z,8.9529
2023-05-19T12:32:21.261Z,8.1618
2023-05-19T12:33:22.312Z,8.3045
2023-05-19T12:34:23.403Z,8.4126
2023-05-19T12:35:24.353Z,8.6489
2023-05-19T12:36:25.420Z,8.5749
2023-05-19T12:37:26.412Z,8.4726
2023-05-19T12:38:27.523Z,7.9024
2023-05-19T12:39:28.567Z,8.5643
2023-05-19T12:40:29.670Z,8.5798
2023-05-19T12:41:30.584Z,8.7095